sensor_id;sensor_type;location;lat;lon;timestamp;P1;durP1;ratioP1;P2;durP2;ratioP2
70253;SDS011;57649;42.968;1.608;2023-02-18T00:00:14;17.17;;;9.43;;
70253;SDS011;57649;42.968;1.608;2023-02-18T00:02:42;12.98;;;8.63;;
70253;SDS011;57649;42.968;1.608;2023-02-18T00:05:08;17.48;;;8.93;;
70253;SDS011;57649;42.968;1.608;2023-02-18T00:07:35;13.98;;;8.68;;
70253;SDS011;57649;42.968;1.608;2023-02-18T00:10:02;15.77;;;8.90;;
70253;SDS011;57649;42.968;1.608;2023-02-18T00:12:29;16.60;;;9.48;;
70253;SDS011;57649;42.968;1.608;2023-02-18T00:14:55;34.08;;;9.23;;
70253;SDS011;57649;42.968;1.608;2023-02-18T00:17:20;15.40;;;8.23;;
70253;SDS011;57649;42.968;1.608;2023-02-18T00:19:46;20.70;;;9.82;;
70253;SDS011;57649;42.968;1.608;2023-02-18T00:22:11;19.52;;;9.50;;
70253;SDS011;57649;42.968;1.608;2023-02-18T00:24:37;16.85;;;9.32;;
70253;SDS011;57649;42.968;1.608;2023-02-18T00:27:03;16.95;;;9.38;;
70253;SDS011;57649;42.968;1.608;2023-02-18T00:29:28;16.60;;;8.85;;
70253;SDS011;57649;42.968;1.608;2023-02-18T00:31:54;13.85;;;8.05;;
70253;SDS011;57649;42.968;1.608;2023-02-18T00:34:19;15.73;;;8.95;;
70253;SDS011;57649;42.968;1.608;2023-02-18T00:36:45;14.43;;;8.50;;
70253;SDS011;57649;42.968;1.608;2023-02-18T00:39:11;13.70;;;8.52;;
70253;SDS011;57649;42.968;1.608;2023-02-18T00:41:37;16.45;;;8.45;;
70253;SDS011;57649;42.968;1.608;2023-02-18T00:44:02;14.35;;;8.73;;
70253;SDS011;57649;42.968;1.608;2023-02-18T00:46:29;13.82;;;7.78;;
70253;SDS011;57649;42.968;1.608;2023-02-18T00:48:54;13.30;;;8.43;;
70253;SDS011;57649;42.968;1.608;2023-02-18T00:51:21;14.52;;;8.60;;
70253;SDS011;57649;42.968;1.608;2023-02-18T00:53:46;15.98;;;8.80;;
70253;SDS011;57649;42.968;1.608;2023-02-18T00:56:13;14.18;;;9.05;;
70253;SDS011;57649;42.968;1.608;2023-02-18T00:58:39;15.15;;;9.32;;
70253;SDS011;57649;42.968;1.608;2023-02-18T01:01:05;14.85;;;9.77;;
70253;SDS011;57649;42.968;1.608;2023-02-18T01:03:31;15.82;;;10.00;;
70253;SDS011;57649;42.968;1.608;2023-02-18T01:05:56;14.27;;;8.77;;
70253;SDS011;57649;42.968;1.608;2023-02-18T01:08:22;16.90;;;9.43;;
70253;SDS011;57649;42.968;1.608;2023-02-18T01:10:48;13.57;;;8.95;;
70253;SDS011;57649;42.968;1.608;2023-02-18T01:13:16;18.30;;;9.27;;
70253;SDS011;57649;42.968;1.608;2023-02-18T01:15:42;23.83;;;9.63;;
70253;SDS011;57649;42.968;1.608;2023-02-18T01:18:08;12.45;;;8.07;;
70253;SDS011;57649;42.968;1.608;2023-02-18T01:20:34;12.30;;;8.38;;
70253;SDS011;57649;42.968;1.608;2023-02-18T01:23:01;18.08;;;8.70;;
70253;SDS011;57649;42.968;1.608;2023-02-18T01:25:27;13.90;;;8.23;;
70253;SDS011;57649;42.968;1.608;2023-02-18T01:27:52;13.68;;;8.02;;
70253;SDS011;57649;42.968;1.608;2023-02-18T01:30:18;15.40;;;7.70;;
70253;SDS011;57649;42.968;1.608;2023-02-18T01:32:44;13.10;;;7.93;;
70253;SDS011;57649;42.968;1.608;2023-02-18T01:35:11;17.58;;;8.55;;
70253;SDS011;57649;42.968;1.608;2023-02-18T01:37:41;16.00;;;8.10;;
70253;SDS011;57649;42.968;1.608;2023-02-18T01:40:07;16.08;;;8.95;;
70253;SDS011;57649;42.968;1.608;2023-02-18T01:42:34;13.80;;;8.43;;
70253;SDS011;57649;42.968;1.608;2023-02-18T01:48:00;16.98;;;8.05;;
70253;SDS011;57649;42.968;1.608;2023-02-18T01:50:29;15.63;;;9.03;;
70253;SDS011;57649;42.968;1.608;2023-02-18T01:52:57;16.13;;;9.63;;
70253;SDS011;57649;42.968;1.608;2023-02-18T01:55:22;13.35;;;9.02;;
70253;SDS011;57649;42.968;1.608;2023-02-18T01:57:48;15.88;;;9.65;;
70253;SDS011;57649;42.968;1.608;2023-02-18T02:00:15;13.10;;;7.95;;
70253;SDS011;57649;42.968;1.608;2023-02-18T02:02:45;16.02;;;9.18;;
70253;SDS011;57649;42.968;1.608;2023-02-18T02:05:13;17.83;;;8.38;;
70253;SDS011;57649;42.968;1.608;2023-02-18T02:07:39;14.00;;;8.20;;
70253;SDS011;57649;42.968;1.608;2023-02-18T02:10:06;14.90;;;8.93;;
70253;SDS011;57649;42.968;1.608;2023-02-18T02:12:55;12.95;;;8.13;;
70253;SDS011;57649;42.968;1.608;2023-02-18T02:15:33;13.63;;;8.07;;
70253;SDS011;57649;42.968;1.608;2023-02-18T02:35:28;11.27;;;6.55;;
70253;SDS011;57649;42.968;1.608;2023-02-18T02:51:31;10.68;;;6.07;;
70253;SDS011;57649;42.968;1.608;2023-02-18T02:54:12;10.75;;;6.55;;
70253;SDS011;57649;42.968;1.608;2023-02-18T02:56:40;11.85;;;6.82;;
70253;SDS011;57649;42.968;1.608;2023-02-18T02:59:07;13.52;;;7.35;;
70253;SDS011;57649;42.968;1.608;2023-02-18T03:07:24;10.30;;;6.25;;
70253;SDS011;57649;42.968;1.608;2023-02-18T03:21:10;26.10;;;15.05;;
70253;SDS011;57649;42.968;1.608;2023-02-18T03:23:43;27.20;;;16.58;;
70253;SDS011;57649;42.968;1.608;2023-02-18T03:26:17;27.48;;;15.63;;
70253;SDS011;57649;42.968;1.608;2023-02-18T03:28:45;27.67;;;16.15;;
70253;SDS011;57649;42.968;1.608;2023-02-18T03:31:15;19.13;;;12.68;;
70253;SDS011;57649;42.968;1.608;2023-02-18T03:33:47;15.02;;;10.10;;
70253;SDS011;57649;42.968;1.608;2023-02-18T03:36:16;17.60;;;8.65;;
70253;SDS011;57649;42.968;1.608;2023-02-18T03:38:53;15.50;;;8.57;;
70253;SDS011;57649;42.968;1.608;2023-02-18T03:41:23;13.00;;;8.05;;
70253;SDS011;57649;42.968;1.608;2023-02-18T03:43:49;13.55;;;7.47;;
70253;SDS011;57649;42.968;1.608;2023-02-18T03:46:20;20.88;;;11.05;;
70253;SDS011;57649;42.968;1.608;2023-02-18T03:48:46;11.57;;;7.35;;
70253;SDS011;57649;42.968;1.608;2023-02-18T03:51:11;15.20;;;6.95;;
70253;SDS011;57649;42.968;1.608;2023-02-18T03:53:37;11.57;;;6.40;;
70253;SDS011;57649;42.968;1.608;2023-02-18T03:56:03;14.43;;;6.80;;
70253;SDS011;57649;42.968;1.608;2023-02-18T03:58:28;11.88;;;5.75;;
70253;SDS011;57649;42.968;1.608;2023-02-18T04:00:54;12.70;;;6.03;;
70253;SDS011;57649;42.968;1.608;2023-02-18T04:03:19;11.77;;;6.60;;
70253;SDS011;57649;42.968;1.608;2023-02-18T04:05:45;14.02;;;6.28;;
70253;SDS011;57649;42.968;1.608;2023-02-18T04:08:12;16.15;;;7.43;;
70253;SDS011;57649;42.968;1.608;2023-02-18T04:10:37;12.73;;;6.03;;
70253;SDS011;57649;42.968;1.608;2023-02-18T04:13:03;12.38;;;6.70;;
70253;SDS011;57649;42.968;1.608;2023-02-18T04:15:29;13.02;;;6.22;;
70253;SDS011;57649;42.968;1.608;2023-02-18T04:17:55;10.75;;;5.88;;
70253;SDS011;57649;42.968;1.608;2023-02-18T04:20:20;8.82;;;5.68;;
70253;SDS011;57649;42.968;1.608;2023-02-18T04:22:46;9.65;;;6.15;;
70253;SDS011;57649;42.968;1.608;2023-02-18T04:25:12;11.45;;;6.00;;
70253;SDS011;57649;42.968;1.608;2023-02-18T04:27:37;11.40;;;6.20;;
70253;SDS011;57649;42.968;1.608;2023-02-18T04:30:03;10.75;;;6.30;;
70253;SDS011;57649;42.968;1.608;2023-02-18T04:32:30;12.23;;;6.63;;
70253;SDS011;57649;42.968;1.608;2023-02-18T04:34:55;10.20;;;5.90;;
70253;SDS011;57649;42.968;1.608;2023-02-18T04:37:20;11.05;;;6.28;;
70253;SDS011;57649;42.968;1.608;2023-02-18T04:39:46;10.75;;;5.72;;
70253;SDS011;57649;42.968;1.608;2023-02-18T04:42:11;11.23;;;6.07;;
70253;SDS011;57649;42.968;1.608;2023-02-18T04:44:37;13.23;;;6.47;;
70253;SDS011;57649;42.968;1.608;2023-02-18T04:47:03;11.65;;;5.65;;
70253;SDS011;57649;42.968;1.608;2023-02-18T04:49:30;9.00;;;5.88;;
70253;SDS011;57649;42.968;1.608;2023-02-18T04:51:55;11.82;;;6.65;;
70253;SDS011;57649;42.968;1.608;2023-02-18T04:54:21;13.25;;;5.63;;
70253;SDS011;57649;42.968;1.608;2023-02-18T04:56:46;12.45;;;5.70;;
70253;SDS011;57649;42.968;1.608;2023-02-18T04:59:12;9.15;;;5.15;;
70253;SDS011;57649;42.968;1.608;2023-02-18T05:01:37;16.60;;;7.18;;
70253;SDS011;57649;42.968;1.608;2023-02-18T05:04:02;15.20;;;6.15;;
70253;SDS011;57649;42.968;1.608;2023-02-18T05:06:28;13.75;;;5.93;;
70253;SDS011;57649;42.968;1.608;2023-02-18T05:08:54;11.00;;;5.53;;
70253;SDS011;57649;42.968;1.608;2023-02-18T05:11:19;9.82;;;5.18;;
70253;SDS011;57649;42.968;1.608;2023-02-18T05:13:45;12.95;;;5.50;;
70253;SDS011;57649;42.968;1.608;2023-02-18T05:16:10;10.60;;;5.90;;
70253;SDS011;57649;42.968;1.608;2023-02-18T05:18:36;11.75;;;6.03;;
70253;SDS011;57649;42.968;1.608;2023-02-18T05:21:01;14.30;;;6.05;;
70253;SDS011;57649;42.968;1.608;2023-02-18T05:23:26;10.82;;;5.60;;
70253;SDS011;57649;42.968;1.608;2023-02-18T05:25:53;13.18;;;5.90;;
70253;SDS011;57649;42.968;1.608;2023-02-18T05:28:18;10.85;;;6.00;;
70253;SDS011;57649;42.968;1.608;2023-02-18T05:30:44;8.98;;;5.32;;
70253;SDS011;57649;42.968;1.608;2023-02-18T05:33:09;7.88;;;5.32;;
70253;SDS011;57649;42.968;1.608;2023-02-18T05:35:36;15.90;;;5.75;;
70253;SDS011;57649;42.968;1.608;2023-02-18T05:38:01;9.32;;;5.45;;
70253;SDS011;57649;42.968;1.608;2023-02-18T05:40:27;10.90;;;5.38;;
70253;SDS011;57649;42.968;1.608;2023-02-18T05:42:52;22.83;;;13.23;;
70253;SDS011;57649;42.968;1.608;2023-02-18T05:45:18;16.15;;;10.60;;
70253;SDS011;57649;42.968;1.608;2023-02-18T05:47:43;17.48;;;9.18;;
70253;SDS011;57649;42.968;1.608;2023-02-18T05:50:09;20.98;;;13.25;;
70253;SDS011;57649;42.968;1.608;2023-02-18T05:52:34;14.38;;;9.35;;
70253;SDS011;57649;42.968;1.608;2023-02-18T05:55:00;13.35;;;7.03;;
70253;SDS011;57649;42.968;1.608;2023-02-18T05:57:25;11.00;;;5.65;;
70253;SDS011;57649;42.968;1.608;2023-02-18T05:59:51;11.68;;;5.90;;
70253;SDS011;57649;42.968;1.608;2023-02-18T06:02:16;9.38;;;5.40;;
70253;SDS011;57649;42.968;1.608;2023-02-18T06:04:42;10.18;;;5.25;;
70253;SDS011;57649;42.968;1.608;2023-02-18T06:07:07;11.27;;;5.10;;
70253;SDS011;57649;42.968;1.608;2023-02-18T06:09:33;9.45;;;4.95;;
70253;SDS011;57649;42.968;1.608;2023-02-18T06:11:58;9.10;;;5.15;;
70253;SDS011;57649;42.968;1.608;2023-02-18T06:14:24;6.75;;;4.95;;
70253;SDS011;57649;42.968;1.608;2023-02-18T06:16:49;10.95;;;5.20;;
70253;SDS011;57649;42.968;1.608;2023-02-18T06:19:15;13.20;;;4.90;;
70253;SDS011;57649;42.968;1.608;2023-02-18T06:21:40;12.95;;;5.85;;
70253;SDS011;57649;42.968;1.608;2023-02-18T06:24:06;10.45;;;5.60;;
70253;SDS011;57649;42.968;1.608;2023-02-18T06:26:31;10.95;;;5.28;;
70253;SDS011;57649;42.968;1.608;2023-02-18T06:28:58;9.13;;;5.32;;
70253;SDS011;57649;42.968;1.608;2023-02-18T06:31:23;11.07;;;5.80;;
70253;SDS011;57649;42.968;1.608;2023-02-18T06:33:49;11.35;;;6.13;;
70253;SDS011;57649;42.968;1.608;2023-02-18T06:36:14;12.57;;;5.80;;
70253;SDS011;57649;42.968;1.608;2023-02-18T06:38:41;14.25;;;6.22;;
70253;SDS011;57649;42.968;1.608;2023-02-18T06:41:08;10.38;;;5.90;;
70253;SDS011;57649;42.968;1.608;2023-02-18T06:43:34;10.07;;;5.30;;
70253;SDS011;57649;42.968;1.608;2023-02-18T06:45:59;13.13;;;5.85;;
70253;SDS011;57649;42.968;1.608;2023-02-18T06:48:25;12.38;;;6.18;;
70253;SDS011;57649;42.968;1.608;2023-02-18T06:50:51;9.48;;;5.63;;
70253;SDS011;57649;42.968;1.608;2023-02-18T06:53:16;12.02;;;6.38;;
70253;SDS011;57649;42.968;1.608;2023-02-18T06:55:42;11.20;;;6.13;;
70253;SDS011;57649;42.968;1.608;2023-02-18T06:58:09;10.27;;;5.45;;
70253;SDS011;57649;42.968;1.608;2023-02-18T07:00:35;15.18;;;5.85;;
70253;SDS011;57649;42.968;1.608;2023-02-18T07:03:01;10.02;;;5.68;;
70253;SDS011;57649;42.968;1.608;2023-02-18T07:05:26;12.05;;;5.60;;
70253;SDS011;57649;42.968;1.608;2023-02-18T07:07:52;13.43;;;4.95;;
70253;SDS011;57649;42.968;1.608;2023-02-18T07:10:17;12.55;;;5.00;;
70253;SDS011;57649;42.968;1.608;2023-02-18T07:12:43;10.77;;;5.32;;
70253;SDS011;57649;42.968;1.608;2023-02-18T07:15:09;13.20;;;5.10;;
70253;SDS011;57649;42.968;1.608;2023-02-18T07:17:34;11.25;;;4.95;;
70253;SDS011;57649;42.968;1.608;2023-02-18T07:20:00;11.18;;;5.60;;
70253;SDS011;57649;42.968;1.608;2023-02-18T07:22:25;11.70;;;5.18;;
70253;SDS011;57649;42.968;1.608;2023-02-18T07:24:51;9.70;;;5.32;;
70253;SDS011;57649;42.968;1.608;2023-02-18T07:27:17;13.32;;;4.97;;
70253;SDS011;57649;42.968;1.608;2023-02-18T07:29:43;12.45;;;5.30;;
70253;SDS011;57649;42.968;1.608;2023-02-18T07:32:10;10.32;;;5.30;;
70253;SDS011;57649;42.968;1.608;2023-02-18T07:34:37;8.55;;;5.38;;
70253;SDS011;57649;42.968;1.608;2023-02-18T07:37:02;10.80;;;5.90;;
70253;SDS011;57649;42.968;1.608;2023-02-18T07:39:33;9.25;;;5.30;;
70253;SDS011;57649;42.968;1.608;2023-02-18T07:42:04;11.00;;;5.72;;
70253;SDS011;57649;42.968;1.608;2023-02-18T07:44:29;9.60;;;5.68;;
70253;SDS011;57649;42.968;1.608;2023-02-18T07:46:55;10.10;;;5.45;;
70253;SDS011;57649;42.968;1.608;2023-02-18T07:49:21;11.48;;;5.25;;
70253;SDS011;57649;42.968;1.608;2023-02-18T07:51:47;10.88;;;5.72;;
70253;SDS011;57649;42.968;1.608;2023-02-18T07:54:13;10.63;;;4.78;;
70253;SDS011;57649;42.968;1.608;2023-02-18T07:56:39;8.40;;;4.28;;
70253;SDS011;57649;42.968;1.608;2023-02-18T07:59:05;10.15;;;4.65;;
70253;SDS011;57649;42.968;1.608;2023-02-18T08:01:30;22.98;;;10.65;;
70253;SDS011;57649;42.968;1.608;2023-02-18T08:03:56;20.95;;;10.65;;
70253;SDS011;57649;42.968;1.608;2023-02-18T08:06:24;10.98;;;7.10;;
70253;SDS011;57649;42.968;1.608;2023-02-18T08:08:54;10.18;;;5.60;;
70253;SDS011;57649;42.968;1.608;2023-02-18T08:11:19;10.82;;;5.10;;
70253;SDS011;57649;42.968;1.608;2023-02-18T08:13:46;9.57;;;4.57;;
70253;SDS011;57649;42.968;1.608;2023-02-18T08:16:12;15.15;;;4.80;;
70253;SDS011;57649;42.968;1.608;2023-02-18T08:18:39;11.88;;;5.10;;
70253;SDS011;57649;42.968;1.608;2023-02-18T08:21:04;9.73;;;4.32;;
70253;SDS011;57649;42.968;1.608;2023-02-18T08:23:30;10.98;;;4.20;;
70253;SDS011;57649;42.968;1.608;2023-02-18T08:25:55;9.00;;;4.72;;
70253;SDS011;57649;42.968;1.608;2023-02-18T08:28:21;9.13;;;3.78;;
70253;SDS011;57649;42.968;1.608;2023-02-18T08:30:48;13.05;;;5.47;;
70253;SDS011;57649;42.968;1.608;2023-02-18T08:33:15;7.65;;;4.15;;
70253;SDS011;57649;42.968;1.608;2023-02-18T08:35:41;13.32;;;5.70;;
70253;SDS011;57649;42.968;1.608;2023-02-18T08:38:07;9.43;;;6.00;;
70253;SDS011;57649;42.968;1.608;2023-02-18T08:40:33;10.23;;;4.63;;
70253;SDS011;57649;42.968;1.608;2023-02-18T08:42:58;10.38;;;4.00;;
70253;SDS011;57649;42.968;1.608;2023-02-18T08:45:24;8.63;;;4.30;;
70253;SDS011;57649;42.968;1.608;2023-02-18T08:47:50;10.27;;;4.28;;
70253;SDS011;57649;42.968;1.608;2023-02-18T08:50:15;11.88;;;4.05;;
70253;SDS011;57649;42.968;1.608;2023-02-18T08:52:41;10.90;;;3.83;;
70253;SDS011;57649;42.968;1.608;2023-02-18T08:55:07;6.65;;;3.88;;
70253;SDS011;57649;42.968;1.608;2023-02-18T08:57:32;8.93;;;4.18;;
70253;SDS011;57649;42.968;1.608;2023-02-18T08:59:58;10.43;;;3.83;;
70253;SDS011;57649;42.968;1.608;2023-02-18T09:02:23;9.95;;;4.00;;
70253;SDS011;57649;42.968;1.608;2023-02-18T09:04:49;7.75;;;3.38;;
70253;SDS011;57649;42.968;1.608;2023-02-18T09:07:15;10.77;;;4.05;;
70253;SDS011;57649;42.968;1.608;2023-02-18T09:09:40;8.38;;;3.50;;
70253;SDS011;57649;42.968;1.608;2023-02-18T09:12:06;8.88;;;3.60;;
70253;SDS011;57649;42.968;1.608;2023-02-18T09:14:32;8.70;;;3.40;;
70253;SDS011;57649;42.968;1.608;2023-02-18T09:16:58;14.48;;;4.72;;
70253;SDS011;57649;42.968;1.608;2023-02-18T09:19:24;9.02;;;3.53;;
70253;SDS011;57649;42.968;1.608;2023-02-18T09:21:49;7.00;;;3.25;;
70253;SDS011;57649;42.968;1.608;2023-02-18T09:24:17;9.82;;;3.38;;
70253;SDS011;57649;42.968;1.608;2023-02-18T09:26:43;9.55;;;3.45;;
70253;SDS011;57649;42.968;1.608;2023-02-18T09:29:08;8.35;;;3.65;;
70253;SDS011;57649;42.968;1.608;2023-02-18T09:31:34;9.13;;;3.45;;
70253;SDS011;57649;42.968;1.608;2023-02-18T09:34:01;8.35;;;3.17;;
70253;SDS011;57649;42.968;1.608;2023-02-18T09:36:27;5.78;;;3.10;;
70253;SDS011;57649;42.968;1.608;2023-02-18T09:38:53;8.68;;;3.70;;
70253;SDS011;57649;42.968;1.608;2023-02-18T09:43:54;11.85;;;4.00;;
70253;SDS011;57649;42.968;1.608;2023-02-18T09:46:25;12.38;;;3.85;;
70253;SDS011;57649;42.968;1.608;2023-02-18T09:48:55;9.57;;;3.67;;
70253;SDS011;57649;42.968;1.608;2023-02-18T09:51:21;8.10;;;4.28;;
70253;SDS011;57649;42.968;1.608;2023-02-18T09:53:46;8.35;;;3.38;;
70253;SDS011;57649;42.968;1.608;2023-02-18T09:56:13;9.75;;;3.40;;
70253;SDS011;57649;42.968;1.608;2023-02-18T09:58:41;7.28;;;3.50;;
70253;SDS011;57649;42.968;1.608;2023-02-18T10:01:23;6.85;;;3.15;;
70253;SDS011;57649;42.968;1.608;2023-02-18T10:03:53;7.65;;;2.95;;
70253;SDS011;57649;42.968;1.608;2023-02-18T10:06:23;8.27;;;3.22;;
70253;SDS011;57649;42.968;1.608;2023-02-18T10:08:51;8.85;;;3.00;;
70253;SDS011;57649;42.968;1.608;2023-02-18T10:11:23;6.35;;;3.17;;
70253;SDS011;57649;42.968;1.608;2023-02-18T10:13:55;11.52;;;4.45;;
70253;SDS011;57649;42.968;1.608;2023-02-18T10:16:22;9.45;;;3.50;;
70253;SDS011;57649;42.968;1.608;2023-02-18T10:18:59;6.75;;;3.20;;
70253;SDS011;57649;42.968;1.608;2023-02-18T10:21:29;6.28;;;2.65;;
70253;SDS011;57649;42.968;1.608;2023-02-18T10:24:04;8.13;;;2.65;;
70253;SDS011;57649;42.968;1.608;2023-02-18T10:26:36;9.63;;;3.22;;
70253;SDS011;57649;42.968;1.608;2023-02-18T10:29:02;5.38;;;2.47;;
70253;SDS011;57649;42.968;1.608;2023-02-18T10:31:33;7.50;;;2.58;;
70253;SDS011;57649;42.968;1.608;2023-02-18T10:34:16;6.70;;;2.65;;
70253;SDS011;57649;42.968;1.608;2023-02-18T10:36:48;11.30;;;3.92;;
70253;SDS011;57649;42.968;1.608;2023-02-18T10:39:26;8.88;;;2.97;;
70253;SDS011;57649;42.968;1.608;2023-02-18T10:47:36;6.57;;;2.60;;
70253;SDS011;57649;42.968;1.608;2023-02-18T10:50:10;6.80;;;2.42;;
70253;SDS011;57649;42.968;1.608;2023-02-18T10:52:54;8.02;;;2.50;;
70253;SDS011;57649;42.968;1.608;2023-02-18T10:55:41;6.32;;;2.47;;
70253;SDS011;57649;42.968;1.608;2023-02-18T10:58:26;5.53;;;2.42;;
70253;SDS011;57649;42.968;1.608;2023-02-18T11:00:59;7.32;;;3.10;;
70253;SDS011;57649;42.968;1.608;2023-02-18T11:03:37;7.30;;;2.72;;
70253;SDS011;57649;42.968;1.608;2023-02-18T11:06:03;5.60;;;2.55;;
70253;SDS011;57649;42.968;1.608;2023-02-18T11:08:43;7.07;;;2.53;;
70253;SDS011;57649;42.968;1.608;2023-02-18T11:14:05;6.75;;;2.78;;
70253;SDS011;57649;42.968;1.608;2023-02-18T11:16:38;11.88;;;3.38;;
70253;SDS011;57649;42.968;1.608;2023-02-18T11:22:13;9.57;;;2.88;;
70253;SDS011;57649;42.968;1.608;2023-02-18T11:24:43;6.97;;;3.22;;
70253;SDS011;57649;42.968;1.608;2023-02-18T11:27:20;8.98;;;3.40;;
70253;SDS011;57649;42.968;1.608;2023-02-18T11:29:55;7.68;;;2.90;;
70253;SDS011;57649;42.968;1.608;2023-02-18T11:32:41;12.85;;;4.25;;
70253;SDS011;57649;42.968;1.608;2023-02-18T11:35:15;8.00;;;3.33;;
70253;SDS011;57649;42.968;1.608;2023-02-18T11:37:43;8.20;;;3.90;;
70253;SDS011;57649;42.968;1.608;2023-02-18T11:40:31;9.50;;;4.10;;
70253;SDS011;57649;42.968;1.608;2023-02-18T11:45:39;12.60;;;4.60;;
70253;SDS011;57649;42.968;1.608;2023-02-18T11:48:13;8.75;;;3.70;;
70253;SDS011;57649;42.968;1.608;2023-02-18T11:50:39;10.50;;;3.97;;
70253;SDS011;57649;42.968;1.608;2023-02-18T11:55:53;8.32;;;4.13;;
70253;SDS011;57649;42.968;1.608;2023-02-18T11:58:20;10.55;;;3.53;;
70253;SDS011;57649;42.968;1.608;2023-02-18T12:00:47;10.93;;;4.13;;
70253;SDS011;57649;42.968;1.608;2023-02-18T12:05:47;9.05;;;3.60;;
70253;SDS011;57649;42.968;1.608;2023-02-18T12:08:16;7.68;;;3.60;;
70253;SDS011;57649;42.968;1.608;2023-02-18T12:10:46;8.13;;;4.07;;
70253;SDS011;57649;42.968;1.608;2023-02-18T12:24:40;11.15;;;4.53;;
70253;SDS011;57649;42.968;1.608;2023-02-18T12:30:11;6.13;;;3.30;;
70253;SDS011;57649;42.968;1.608;2023-02-18T12:33:11;7.35;;;3.58;;
70253;SDS011;57649;42.968;1.608;2023-02-18T12:36:01;6.95;;;4.05;;
70253;SDS011;57649;42.968;1.608;2023-02-18T12:38:53;10.18;;;4.07;;
70253;SDS011;57649;42.968;1.608;2023-02-18T12:52:46;10.32;;;3.15;;
70253;SDS011;57649;42.968;1.608;2023-02-18T13:11:46;4.30;;;2.33;;
70253;SDS011;57649;42.968;1.608;2023-02-18T13:14:17;6.75;;;2.17;;
70253;SDS011;57649;42.968;1.608;2023-02-18T13:16:47;3.55;;;2.20;;
70253;SDS011;57649;42.968;1.608;2023-02-18T13:19:24;4.07;;;2.08;;
70253;SDS011;57649;42.968;1.608;2023-02-18T13:21:58;7.78;;;1.92;;
70253;SDS011;57649;42.968;1.608;2023-02-18T13:26:55;4.38;;;1.90;;
70253;SDS011;57649;42.968;1.608;2023-02-18T13:29:29;3.10;;;1.67;;
70253;SDS011;57649;42.968;1.608;2023-02-18T13:32:19;6.10;;;2.13;;
70253;SDS011;57649;42.968;1.608;2023-02-18T13:40:25;4.45;;;2.40;;
70253;SDS011;57649;42.968;1.608;2023-02-18T13:42:54;7.65;;;2.30;;
70253;SDS011;57649;42.968;1.608;2023-02-18T13:46:03;4.68;;;2.05;;
70253;SDS011;57649;42.968;1.608;2023-02-18T13:51:14;6.95;;;1.98;;
70253;SDS011;57649;42.968;1.608;2023-02-18T13:53:43;3.63;;;1.75;;
70253;SDS011;57649;42.968;1.608;2023-02-18T13:58:42;2.75;;;1.70;;
70253;SDS011;57649;42.968;1.608;2023-02-18T14:01:14;2.45;;;1.70;;
70253;SDS011;57649;42.968;1.608;2023-02-18T14:08:45;4.03;;;1.90;;
70253;SDS011;57649;42.968;1.608;2023-02-18T14:13:41;5.18;;;2.33;;
70253;SDS011;57649;42.968;1.608;2023-02-18T14:16:11;4.18;;;2.05;;
70253;SDS011;57649;42.968;1.608;2023-02-18T14:21:04;4.28;;;2.00;;
70253;SDS011;57649;42.968;1.608;2023-02-18T14:24:03;9.05;;;2.90;;
70253;SDS011;57649;42.968;1.608;2023-02-18T14:26:35;5.10;;;2.50;;
70253;SDS011;57649;42.968;1.608;2023-02-18T14:29:05;3.28;;;2.03;;
70253;SDS011;57649;42.968;1.608;2023-02-18T14:31:46;5.70;;;2.55;;
70253;SDS011;57649;42.968;1.608;2023-02-18T14:34:29;4.50;;;2.80;;
70253;SDS011;57649;42.968;1.608;2023-02-18T14:37:15;6.38;;;2.45;;
70253;SDS011;57649;42.968;1.608;2023-02-18T14:50:43;7.65;;;3.05;;
70253;SDS011;57649;42.968;1.608;2023-02-18T14:53:16;5.32;;;2.40;;
70253;SDS011;57649;42.968;1.608;2023-02-18T14:55:49;4.07;;;2.60;;
70253;SDS011;57649;42.968;1.608;2023-02-18T15:01:04;6.75;;;2.13;;
70253;SDS011;57649;42.968;1.608;2023-02-18T15:03:51;4.85;;;1.90;;
70253;SDS011;57649;42.968;1.608;2023-02-18T15:06:26;6.15;;;2.38;;
70253;SDS011;57649;42.968;1.608;2023-02-18T15:08:55;4.45;;;2.80;;
70253;SDS011;57649;42.968;1.608;2023-02-18T15:11:22;5.28;;;2.75;;
70253;SDS011;57649;42.968;1.608;2023-02-18T15:13:55;7.28;;;3.00;;
70253;SDS011;57649;42.968;1.608;2023-02-18T15:18:55;3.40;;;1.73;;
70253;SDS011;57649;42.968;1.608;2023-02-18T15:21:25;4.95;;;3.42;;
70253;SDS011;57649;42.968;1.608;2023-02-18T15:23:53;4.38;;;2.28;;
70253;SDS011;57649;42.968;1.608;2023-02-18T15:26:19;3.50;;;2.00;;
70253;SDS011;57649;42.968;1.608;2023-02-18T15:28:53;4.38;;;2.53;;
70253;SDS011;57649;42.968;1.608;2023-02-18T15:31:25;4.70;;;3.55;;
70253;SDS011;57649;42.968;1.608;2023-02-18T15:33:52;5.72;;;2.50;;
70253;SDS011;57649;42.968;1.608;2023-02-18T15:36:19;5.30;;;2.90;;
70253;SDS011;57649;42.968;1.608;2023-02-18T15:38:44;8.07;;;2.90;;
70253;SDS011;57649;42.968;1.608;2023-02-18T15:41:13;7.38;;;3.10;;
70253;SDS011;57649;42.968;1.608;2023-02-18T15:43:53;5.85;;;2.75;;
70253;SDS011;57649;42.968;1.608;2023-02-18T15:46:20;5.10;;;2.05;;
70253;SDS011;57649;42.968;1.608;2023-02-18T15:48:48;6.10;;;2.60;;
70253;SDS011;57649;42.968;1.608;2023-02-18T15:53:46;4.90;;;2.63;;
70253;SDS011;57649;42.968;1.608;2023-02-18T15:56:25;7.93;;;2.67;;
70253;SDS011;57649;42.968;1.608;2023-02-18T15:59:00;17.00;;;2.85;;
70253;SDS011;57649;42.968;1.608;2023-02-18T16:01:50;5.60;;;2.72;;
70253;SDS011;57649;42.968;1.608;2023-02-18T16:04:19;7.07;;;2.83;;
70253;SDS011;57649;42.968;1.608;2023-02-18T16:06:48;6.43;;;3.72;;
70253;SDS011;57649;42.968;1.608;2023-02-18T16:09:32;4.50;;;3.20;;
70253;SDS011;57649;42.968;1.608;2023-02-18T16:12:00;5.80;;;2.63;;
70253;SDS011;57649;42.968;1.608;2023-02-18T16:14:30;6.53;;;3.30;;
70253;SDS011;57649;42.968;1.608;2023-02-18T16:17:07;6.22;;;3.30;;
70253;SDS011;57649;42.968;1.608;2023-02-18T16:19:44;5.65;;;3.28;;
70253;SDS011;57649;42.968;1.608;2023-02-18T16:25:00;6.72;;;3.88;;
70253;SDS011;57649;42.968;1.608;2023-02-18T16:27:54;7.03;;;3.50;;
70253;SDS011;57649;42.968;1.608;2023-02-18T16:30:28;7.40;;;2.80;;
70253;SDS011;57649;42.968;1.608;2023-02-18T16:32:56;5.53;;;3.00;;
70253;SDS011;57649;42.968;1.608;2023-02-18T16:35:23;4.57;;;2.70;;
70253;SDS011;57649;42.968;1.608;2023-02-18T16:37:51;5.43;;;2.90;;
70253;SDS011;57649;42.968;1.608;2023-02-18T16:40:22;10.13;;;3.00;;
70253;SDS011;57649;42.968;1.608;2023-02-18T16:42:53;7.18;;;3.38;;
70253;SDS011;57649;42.968;1.608;2023-02-18T16:45:21;8.23;;;3.00;;
70253;SDS011;57649;42.968;1.608;2023-02-18T16:47:52;8.50;;;3.40;;
70253;SDS011;57649;42.968;1.608;2023-02-18T16:50:18;8.65;;;3.15;;
70253;SDS011;57649;42.968;1.608;2023-02-18T16:52:46;6.15;;;3.90;;
70253;SDS011;57649;42.968;1.608;2023-02-18T16:55:17;10.15;;;3.95;;
70253;SDS011;57649;42.968;1.608;2023-02-18T16:57:45;8.40;;;4.80;;
70253;SDS011;57649;42.968;1.608;2023-02-18T17:00:11;10.65;;;5.25;;
70253;SDS011;57649;42.968;1.608;2023-02-18T17:02:38;10.48;;;5.35;;
70253;SDS011;57649;42.968;1.608;2023-02-18T17:05:04;8.07;;;3.85;;
70253;SDS011;57649;42.968;1.608;2023-02-18T17:07:30;9.30;;;4.57;;
70253;SDS011;57649;42.968;1.608;2023-02-18T17:09:57;10.32;;;4.47;;
70253;SDS011;57649;42.968;1.608;2023-02-18T17:12:24;9.07;;;4.30;;
70253;SDS011;57649;42.968;1.608;2023-02-18T17:14:50;8.07;;;3.83;;
70253;SDS011;57649;42.968;1.608;2023-02-18T17:17:16;6.55;;;3.28;;
70253;SDS011;57649;42.968;1.608;2023-02-18T17:19:46;9.40;;;4.50;;
70253;SDS011;57649;42.968;1.608;2023-02-18T17:22:12;15.80;;;10.05;;
70253;SDS011;57649;42.968;1.608;2023-02-18T17:24:38;10.55;;;6.72;;
70253;SDS011;57649;42.968;1.608;2023-02-18T17:27:03;12.70;;;8.50;;
70253;SDS011;57649;42.968;1.608;2023-02-18T17:29:29;18.08;;;11.27;;